createdAt,value
2022-08-17T00:00:42.626Z,67.77
2022-08-17T00:03:10.013Z,67.29
2022-08-17T00:05:43.829Z,67.66
2022-08-17T00:08:12.731Z,67.79
2022-08-17T00:10:40.997Z,68.19
2022-08-17T00:13:11.314Z,68.69
2022-08-17T00:15:40.006Z,68.51
2022-08-17T00:19:04.164Z,68.29
2022-08-17T00:20:58.606Z,68.53
2022-08-17T00:23:27.998Z,68.74
2022-08-17T00:25:56.347Z,69.41
2022-08-17T00:28:25.240Z,69.09
2022-08-17T00:30:54.142Z,69.11
2022-08-17T00:33:26.514Z,68.41
2022-08-17T00:35:55.192Z,68.72
2022-08-17T00:38:23.616Z,68.66
2022-08-17T00:40:59.208Z,68.50
2022-08-17T00:43:33.006Z,68.84
2022-08-17T00:46:02.763Z,68.49
2022-08-17T00:48:33.326Z,68.13
2022-08-17T00:51:08.339Z,68.09
2022-08-17T00:53:42.572Z,68.42
2022-08-17T00:56:14.658Z,69.14
2022-08-17T00:58:43.058Z,69.57
2022-08-17T01:01:13.111Z,69.65
2022-08-17T01:03:53.071Z,69.81
2022-08-17T01:06:25.951Z,69.91
2022-08-17T01:08:57.553Z,69.96
2022-08-17T01:11:26.033Z,70.99
2022-08-17T01:13:55.249Z,72.50
2022-08-17T01:16:25.947Z,74.10
2022-08-17T01:18:58.076Z,74.19
2022-08-17T01:21:33.171Z,74.53
2022-08-17T01:24:04.237Z,74.09
2022-08-17T01:26:34.367Z,74.59
2022-08-17T01:29:04.116Z,74.51
2022-08-17T01:31:36.823Z,74.50
2022-08-17T01:34:08.789Z,74.20
2022-08-17T01:36:38.376Z,74.59
2022-08-17T01:39:12.940Z,75.44
2022-08-17T01:41:42.077Z,76.62
2022-08-17T01:44:10.667Z,75.39
2022-08-17T01:46:39.027Z,75.21
2022-08-17T01:49:08.310Z,74.89
2022-08-17T01:51:36.913Z,74.07
2022-08-17T01:54:09.702Z,74.01
2022-08-17T01:56:47.396Z,74.33
2022-08-17T01:59:16.620Z,74.73
2022-08-17T02:01:45.390Z,74.07
2022-08-17T02:04:14.496Z,73.92
2022-08-17T02:06:52.642Z,73.72
2022-08-17T02:09:25.701Z,73.67
2022-08-17T02:11:55.131Z,73.67
2022-08-17T02:14:25.858Z,73.57
2022-08-17T02:16:56.066Z,73.47
2022-08-17T02:19:24.232Z,72.92
2022-08-17T02:21:55.262Z,72.70
2022-08-17T02:24:59.843Z,71.92
2022-08-17T02:27:16.169Z,71.69
2022-08-17T02:29:44.102Z,71.70
2022-08-17T02:32:20.994Z,71.50
2022-08-17T02:34:57.022Z,72.92
2022-08-17T02:37:25.919Z,73.05
2022-08-17T02:39:57.244Z,73.61
2022-08-17T02:42:29.011Z,74.03
2022-08-17T02:44:56.932Z,74.19
2022-08-17T02:47:25.921Z,74.17
2022-08-17T02:49:56.014Z,74.99
2022-08-17T02:53:01.583Z,74.93
2022-08-17T02:55:20.572Z,74.57
2022-08-17T02:57:49.091Z,74.03
2022-08-17T03:00:22.286Z,74.18
2022-08-17T03:02:50.923Z,73.36
2022-08-17T03:05:22.586Z,74.85
2022-08-17T03:07:51.246Z,75.85
2022-08-17T03:10:21.588Z,76.74
2022-08-17T03:12:50.461Z,77.20
2022-08-17T03:15:20.820Z,77.76
2022-08-17T03:17:49.689Z,77.87
2022-08-17T03:20:18.353Z,77.54
2022-08-17T03:22:53.254Z,77.76
2022-08-17T03:25:26.029Z,78.04
2022-08-17T03:27:54.289Z,79.13
2022-08-17T03:30:23.438Z,79.81
2022-08-17T03:32:54.902Z,80.25
2022-08-17T03:35:26.987Z,80.00
2022-08-17T03:38:00.045Z,80.63
2022-08-17T03:40:34.416Z,81.45
2022-08-17T03:43:21.772Z,81.72
2022-08-17T03:46:28.864Z,83.25
2022-08-17T03:49:13.561Z,84.41
2022-08-17T03:51:59.090Z,85.18
2022-08-17T03:54:45.120Z,84.68
2022-08-17T03:57:14.665Z,84.12
2022-08-17T03:59:42.977Z,83.92
2022-08-17T04:02:18.897Z,84.05
2022-08-17T04:04:51.002Z,84.60
2022-08-17T04:07:19.509Z,84.69
2022-08-17T04:09:47.915Z,83.78
2022-08-17T04:12:19.111Z,82.67
2022-08-17T04:14:53.562Z,81.03
2022-08-17T04:17:24.301Z,79.20
2022-08-17T04:19:53.021Z,78.02
2022-08-17T04:22:30.732Z,78.10
2022-08-17T04:25:00.084Z,77.86
2022-08-17T04:27:29.800Z,79.54
2022-08-17T04:29:58.654Z,79.73
2022-08-17T04:33:05.366Z,79.23
2022-08-17T04:35:19.353Z,79.04
2022-08-17T04:37:47.540Z,78.47
2022-08-17T04:40:32.850Z,77.57
2022-08-17T04:43:07.580Z,76.86
2022-08-17T04:45:39.318Z,76.49
2022-08-17T04:48:08.290Z,76.28
2022-08-17T04:50:37.977Z,75.61
2022-08-17T04:53:08.264Z,75.11
2022-08-17T04:55:36.355Z,74.56
2022-08-17T04:58:06.448Z,74.32
2022-08-17T05:00:35.167Z,73.67
2022-08-17T05:03:03.253Z,72.85
2022-08-17T05:05:34.242Z,71.79
2022-08-17T05:08:04.970Z,70.52
2022-08-17T05:10:36.947Z,69.86
2022-08-17T05:13:12.427Z,68.76
2022-08-17T05:15:44.925Z,68.85
2022-08-17T05:18:13.302Z,68.29
2022-08-17T05:20:42.020Z,68.62
2022-08-17T05:23:12.851Z,66.55
2022-08-17T05:25:47.338Z,65.05
2022-08-17T05:28:18.409Z,63.35
2022-08-17T05:30:49.193Z,65.22
2022-08-17T05:33:19.880Z,68.92
2022-08-17T05:35:49.991Z,67.47
2022-08-17T05:38:20.996Z,66.96
2022-08-17T05:40:49.946Z,65.40
2022-08-17T05:43:23.318Z,63.46
2022-08-17T05:45:56.594Z,61.05
2022-08-17T05:48:39.160Z,59.19
2022-08-17T05:51:22.404Z,57.69
2022-08-17T05:53:57.578Z,57.58
2022-08-17T05:56:35.271Z,58.62
2022-08-17T05:59:15.376Z,59.42
2022-08-17T06:01:53.494Z,59.50
2022-08-17T06:04:31.376Z,59.35
2022-08-17T06:07:07.922Z,58.67
2022-08-17T06:09:41.077Z,57.07
2022-08-17T06:12:28.890Z,55.63
2022-08-17T06:15:14.559Z,54.88
2022-08-17T06:17:44.285Z,54.63
2022-08-17T06:20:15.472Z,55.37
2022-08-17T06:22:47.336Z,55.33
2022-08-17T06:25:19.244Z,55.19
2022-08-17T06:27:53.712Z,54.20
2022-08-17T06:30:26.391Z,53.95
2022-08-17T06:32:59.544Z,54.72
2022-08-17T06:35:34.695Z,54.50
2022-08-17T06:38:10.410Z,54.18
2022-08-17T06:41:10.158Z,55.20
2022-08-17T06:43:49.764Z,55.57
2022-08-17T06:46:25.477Z,55.26
2022-08-17T06:49:11.809Z,54.44
2022-08-17T06:51:42.561Z,54.33
2022-08-17T06:54:19.411Z,53.29
2022-08-17T06:56:55.306Z,53.28
2022-08-17T06:59:35.673Z,53.26
2022-08-17T07:02:29.095Z,52.92
2022-08-17T07:05:14.068Z,53.14
2022-08-17T07:08:02.944Z,52.50
2022-08-17T07:10:40.167Z,50.85
2022-08-17T07:13:38.682Z,50.04
2022-08-17T07:16:17.167Z,49.58
2022-08-17T07:18:47.810Z,49.63
2022-08-17T07:21:26.872Z,49.36
2022-08-17T07:24:08.342Z,49.58
2022-08-17T07:26:38.888Z,49.08
2022-08-17T07:29:07.128Z,48.41
2022-08-17T07:31:39.357Z,48.64
2022-08-17T07:34:14.852Z,49.36
2022-08-17T07:36:43.609Z,51.31
2022-08-17T07:39:12.072Z,52.36
2022-08-17T07:41:57.405Z,53.17
2022-08-17T07:44:27.675Z,52.83
2022-08-17T07:47:13.579Z,51.96
2022-08-17T07:49:46.809Z,52.82
2022-08-17T07:52:51.714Z,52.55
2022-08-17T07:55:29.499Z,52.51
2022-08-17T07:58:00.527Z,52.19
2022-08-17T08:00:31.951Z,55.23
2022-08-17T08:03:05.994Z,55.78
2022-08-17T08:05:50.286Z,55.75
2022-08-17T08:08:32.334Z,54.42
2022-08-17T08:11:08.402Z,54.14
2022-08-17T08:13:42.351Z,59.27
2022-08-17T08:16:24.958Z,64.04
2022-08-17T08:18:57.523Z,65.91
2022-08-17T08:21:37.443Z,68.94
2022-08-17T08:24:21.565Z,69.80
2022-08-17T08:26:58.200Z,71.79
2022-08-17T08:29:33.597Z,73.75
2022-08-17T08:32:10.810Z,75.18
2022-08-17T08:35:02.121Z,74.81
2022-08-17T08:37:58.117Z,76.84
2022-08-17T08:40:39.818Z,77.79
2022-08-17T08:43:22.795Z,78.00
2022-08-17T08:45:58.110Z,77.55
2022-08-17T08:48:58.303Z,74.24
2022-08-17T08:51:39.303Z,78.76
2022-08-17T08:54:17.769Z,80.15
2022-08-17T08:57:23.178Z,76.81
2022-08-17T09:00:02.110Z,75.63
2022-08-17T09:02:49.429Z,72.45
2022-08-17T09:05:30.379Z,68.78
2022-08-17T09:08:05.407Z,65.32
2022-08-17T09:10:48.260Z,59.97
2022-08-17T09:13:23.331Z,61.39
2022-08-17T09:15:59.159Z,62.90
2022-08-17T09:19:01.747Z,62.32
2022-08-17T09:21:29.765Z,60.28
2022-08-17T09:24:11.496Z,59.36
2022-08-17T09:26:49.142Z,61.95
2022-08-17T09:29:18.675Z,58.90
2022-08-17T09:31:55.244Z,56.47
2022-08-17T09:34:33.610Z,52.74
2022-08-17T09:37:17.310Z,50.80
2022-08-17T09:39:52.660Z,49.81
2022-08-17T09:42:31.329Z,49.69
2022-08-17T09:45:11.320Z,47.35
2022-08-17T09:47:45.751Z,53.01
2022-08-17T09:50:20.218Z,53.89
2022-08-17T09:53:08.890Z,54.35
2022-08-17T09:55:50.781Z,52.83
2022-08-17T09:58:29.174Z,56.87
2022-08-17T10:01:03.921Z,54.39
2022-08-17T10:03:55.939Z,51.35
2022-08-17T10:06:31.537Z,46.97
2022-08-17T10:09:08.999Z,49.36
2022-08-17T10:12:00.780Z,46.49
2022-08-17T10:14:44.151Z,44.44
2022-08-17T10:17:26.921Z,42.49
2022-08-17T10:20:02.809Z,46.20
2022-08-17T10:22:56.571Z,42.29
2022-08-17T10:25:54.526Z,40.19
2022-08-17T10:28:29.801Z,42.39
2022-08-17T10:31:30.866Z,38.24
2022-08-17T10:34:11.344Z,34.68
2022-08-17T10:36:56.318Z,38.47
2022-08-17T10:39:32.658Z,42.36
2022-08-17T10:42:13.202Z,42.30
2022-08-17T10:45:03.332Z,41.72
2022-08-17T10:48:05.884Z,42.49
2022-08-17T10:50:49.766Z,41.85
2022-08-17T10:53:56.412Z,42.03
2022-08-17T10:56:48.160Z,45.34
2022-08-17T10:59:52.216Z,47.98
2022-08-17T11:02:45.849Z,50.56
2022-08-17T11:08:57.616Z,48.06
2022-08-17T11:11:47.717Z,46.94
2022-08-17T11:14:35.139Z,46.22
2022-08-17T11:17:16.558Z,44.41
2022-08-17T11:20:02.507Z,42.82
2022-08-17T11:23:14.712Z,41.36
2022-08-17T11:25:47.331Z,41.01
2022-08-17T11:28:19.831Z,39.70
2022-08-17T11:30:55.206Z,39.02
2022-08-17T11:33:55.609Z,37.97
2022-08-17T11:37:11.288Z,34.89
2022-08-17T11:39:55.762Z,32.52
2022-08-17T11:42:39.474Z,30.29
2022-08-17T11:45:32.145Z,31.14
2022-08-17T11:48:28.215Z,32.29
2022-08-17T11:51:19.307Z,29.95
2022-08-17T11:56:54.112Z,25.92
2022-08-17T11:59:55.571Z,25.06
2022-08-17T12:02:39.054Z,27.35
2022-08-17T12:05:42.040Z,28.33
2022-08-17T12:08:19.887Z,29.61
2022-08-17T12:10:58.277Z,28.67
2022-08-17T12:13:35.198Z,30.84
2022-08-17T12:16:10.162Z,32.44
2022-08-17T12:18:42.214Z,33.09
2022-08-17T12:21:27.151Z,32.31
2022-08-17T12:24:06.684Z,31.89
2022-08-17T12:26:37.370Z,32.88
2022-08-17T12:29:09.424Z,33.39
2022-08-17T12:31:50.124Z,33.59
2022-08-17T12:34:23.956Z,33.09
2022-08-17T12:36:59.167Z,32.79
2022-08-17T12:39:28.241Z,32.54
2022-08-17T12:42:03.201Z,33.20
2022-08-17T12:44:32.764Z,32.76
2022-08-17T12:47:04.748Z,32.75
2022-08-17T12:49:37.098Z,31.63
2022-08-17T12:52:14.876Z,30.08
2022-08-17T12:54:55.815Z,28.60
2022-08-17T12:57:26.934Z,28.15
2022-08-17T13:00:01.533Z,28.30
2022-08-17T13:02:41.413Z,28.33
2022-08-17T13:05:19.126Z,25.81
2022-08-17T13:07:49.236Z,25.86
2022-08-17T13:10:22.581Z,23.65
2022-08-17T13:12:51.471Z,23.24
2022-08-17T13:15:28.283Z,25.33
2022-08-17T13:18:05.318Z,27.43
2022-08-17T13:20:39.302Z,29.25
2022-08-17T13:23:12.664Z,31.58
2022-08-17T13:25:41.233Z,32.05
2022-08-17T13:28:29.902Z,32.41
2022-08-17T13:31:38.558Z,29.17
2022-08-17T13:35:07.759Z,28.11
2022-08-17T13:37:32.838Z,25.55
2022-08-17T13:40:23.198Z,25.03
2022-08-17T13:42:54.302Z,24.99
2022-08-17T13:45:50.770Z,22.39
2022-08-17T13:48:29.371Z,19.87
2022-08-17T13:51:24.714Z,18.06
2022-08-17T13:54:01.022Z,17.71
2022-08-17T13:56:39.385Z,18.82
2022-08-17T13:59:12.497Z,20.00
2022-08-17T14:01:44.302Z,20.27
2022-08-17T14:04:14.237Z,21.22
2022-08-17T14:06:51.809Z,19.94
2022-08-17T14:09:25.171Z,19.05
2022-08-17T14:11:55.216Z,19.11
2022-08-17T14:14:23.721Z,18.90
2022-08-17T14:16:52.313Z,19.33
2022-08-17T14:19:22.738Z,17.28
2022-08-17T14:21:51.262Z,14.76
2022-08-17T14:24:28.106Z,16.04
2022-08-17T14:26:58.485Z,16.31
2022-08-17T14:29:31.545Z,16.20
2022-08-17T14:32:03.273Z,15.88
2022-08-17T14:34:32.408Z,16.71
2022-08-17T14:37:00.894Z,16.76
2022-08-17T14:39:30.354Z,16.04
2022-08-17T14:41:59.406Z,15.65
2022-08-17T14:44:27.743Z,14.63
2022-08-17T14:46:56.038Z,15.21
2022-08-17T14:49:26.046Z,15.00
2022-08-17T14:51:54.076Z,14.96
2022-08-17T14:54:33.581Z,15.08
2022-08-17T14:57:22.642Z,15.63
2022-08-17T14:59:54.811Z,15.03
2022-08-17T15:02:29.191Z,14.54
2022-08-17T15:05:03.502Z,15.33
2022-08-17T15:07:31.968Z,16.93
2022-08-17T15:10:01.495Z,16.27
2022-08-17T15:12:34.132Z,16.03
2022-08-17T15:15:04.510Z,16.08
2022-08-17T15:17:54.740Z,16.53
2022-08-17T15:20:25.306Z,18.18
2022-08-17T15:22:56.034Z,18.46
2022-08-17T15:25:27.730Z,18.81
2022-08-17T15:27:57.524Z,18.16
2022-08-17T15:30:26.746Z,17.07
2022-08-17T15:32:55.827Z,16.18
2022-08-17T15:35:27.141Z,15.35
2022-08-17T15:37:56.791Z,15.12
2022-08-17T15:40:28.197Z,14.88
2022-08-17T15:42:59.738Z,15.25
2022-08-17T15:45:31.153Z,15.09
2022-08-17T15:47:59.377Z,15.55
2022-08-17T15:50:27.299Z,16.46
2022-08-17T15:52:57.983Z,16.57
2022-08-17T15:55:28.309Z,16.79
2022-08-17T15:57:56.513Z,16.58
2022-08-17T16:00:28.395Z,16.84
2022-08-17T16:03:45.050Z,16.57
2022-08-17T16:05:50.357Z,16.35
2022-08-17T16:08:21.254Z,16.75
2022-08-17T16:10:50.381Z,16.93
2022-08-17T16:13:19.608Z,17.06
2022-08-17T16:15:57.259Z,17.55
2022-08-17T16:18:31.070Z,19.43
2022-08-17T16:21:22.710Z,20.24
2022-08-17T16:23:54.046Z,21.88
2022-08-17T16:26:23.149Z,22.13
2022-08-17T16:28:51.993Z,23.26
2022-08-17T16:31:22.071Z,24.81
2022-08-17T16:34:03.757Z,25.41
2022-08-17T16:36:39.715Z,25.85
2022-08-17T16:39:08.458Z,26.61
2022-08-17T16:41:45.423Z,26.71
2022-08-17T16:44:17.007Z,26.67
2022-08-17T16:46:47.525Z,27.33
2022-08-17T16:49:35.921Z,27.58
2022-08-17T16:52:11.070Z,28.14
2022-08-17T16:54:43.613Z,29.25
2022-08-17T16:57:12.706Z,29.56
2022-08-17T16:59:43.922Z,30.09
2022-08-17T17:02:24.694Z,30.41
2022-08-17T17:04:57.765Z,30.61
2022-08-17T17:08:01.127Z,30.56
2022-08-17T17:10:35.197Z,30.64
2022-08-17T17:13:04.977Z,30.27
2022-08-17T17:15:47.857Z,30.77
2022-08-17T17:18:17.788Z,30.53
2022-08-17T17:20:53.638Z,30.03
2022-08-17T17:23:44.114Z,29.58
2022-08-17T17:26:38.085Z,29.23
2022-08-17T17:29:21.090Z,29.07
2022-08-17T17:31:56.868Z,29.25
2022-08-17T17:34:30.653Z,29.81
2022-08-17T17:37:02.692Z,30.26
2022-08-17T17:39:43.599Z,30.29
2022-08-17T17:42:16.608Z,30.96
2022-08-17T17:44:54.449Z,31.36
2022-08-17T17:47:22.936Z,31.73
2022-08-17T17:49:54.866Z,32.13
2022-08-17T17:52:33.300Z,32.36
2022-08-17T17:55:16.307Z,32.03
2022-08-17T17:57:54.668Z,31.41
2022-08-17T18:00:25.424Z,30.59
2022-08-17T18:03:07.231Z,31.34
2022-08-17T18:05:53.125Z,32.35
2022-08-17T18:08:37.617Z,32.10
2022-08-17T18:11:24.011Z,31.93
2022-08-17T18:14:06.715Z,32.09
2022-08-17T18:16:36.450Z,32.45
2022-08-17T18:19:06.078Z,32.70
2022-08-17T18:21:44.359Z,33.47
2022-08-17T18:24:14.281Z,33.93
2022-08-17T18:26:59.457Z,35.07
2022-08-17T18:29:34.559Z,36.05
2022-08-17T18:32:32.452Z,37.05
2022-08-17T18:35:03.681Z,37.33
2022-08-17T18:37:40.553Z,38.11
2022-08-17T18:40:32.216Z,38.12
2022-08-17T18:43:07.629Z,38.74
2022-08-17T18:45:46.111Z,38.85
2022-08-17T18:48:24.624Z,39.17
2022-08-17T18:50:54.888Z,39.52
2022-08-17T18:53:34.160Z,39.57
2022-08-17T18:56:28.104Z,39.97
2022-08-17T18:59:17.298Z,40.34
2022-08-17T19:02:00.556Z,40.49
2022-08-17T19:04:35.407Z,41.12
2022-08-17T19:07:12.389Z,41.06
2022-08-17T19:09:48.305Z,40.93
2022-08-17T19:12:27.319Z,41.25
2022-08-17T19:14:57.685Z,41.31
2022-08-17T19:17:33.308Z,41.53
2022-08-17T19:20:09.417Z,41.82
2022-08-17T19:22:50.948Z,42.19
2022-08-17T19:25:24.327Z,42.58
2022-08-17T19:28:00.762Z,43.06
2022-08-17T19:30:32.906Z,43.98
2022-08-17T19:33:03.498Z,44.21
2022-08-17T19:35:42.219Z,44.10
2022-08-17T19:38:20.834Z,44.08
2022-08-17T19:41:04.290Z,44.88
2022-08-17T19:43:42.664Z,44.87
2022-08-17T19:46:18.613Z,45.17
2022-08-17T19:48:56.491Z,45.77
2022-08-17T19:51:31.767Z,46.55
2022-08-17T19:54:07.175Z,47.59
2022-08-17T19:56:48.791Z,48.79
2022-08-17T19:59:26.838Z,48.61
2022-08-17T20:02:01.296Z,48.45
2022-08-17T20:04:37.614Z,49.15
2022-08-17T20:07:12.985Z,49.66
2022-08-17T20:09:45.259Z,50.69
2022-08-17T20:12:18.447Z,51.86
2022-08-17T20:14:55.237Z,53.30
2022-08-17T20:17:28.604Z,53.63
2022-08-17T20:20:03.344Z,53.63
2022-08-17T20:22:49.639Z,52.50
2022-08-17T20:25:30.453Z,51.93
2022-08-17T20:28:07.426Z,51.00
2022-08-17T20:30:39.139Z,51.44
2022-08-17T20:33:13.093Z,51.75
2022-08-17T20:36:03.456Z,52.40
2022-08-17T20:38:42.968Z,53.25
2022-08-17T20:41:16.447Z,54.08
2022-08-17T20:43:52.336Z,55.03
2022-08-17T20:46:50.104Z,55.53
2022-08-17T20:49:28.834Z,55.00
2022-08-17T20:52:02.722Z,54.05
2022-08-17T20:54:48.686Z,54.14
2022-08-17T20:57:47.527Z,54.27
2022-08-17T21:00:50.525Z,53.59
2022-08-17T21:03:52.231Z,53.81
2022-08-17T21:06:24.967Z,54.05
2022-08-17T21:08:58.659Z,54.71
2022-08-17T21:11:57.060Z,54.68
2022-08-17T21:15:01.724Z,55.49
2022-08-17T21:17:42.318Z,56.30
2022-08-17T21:20:32.274Z,56.60
2022-08-17T21:23:29.055Z,56.93
2022-08-17T21:26:30.225Z,57.94
2022-08-17T21:29:30.246Z,58.35
2022-08-17T21:32:24.686Z,59.24
2022-08-17T21:35:25.350Z,58.72
2022-08-17T21:38:05.372Z,58.36
2022-08-17T21:40:36.897Z,59.80
2022-08-17T21:43:18.649Z,60.97
2022-08-17T21:45:58.725Z,60.92
2022-08-17T21:48:30.000Z,60.29
2022-08-17T21:51:09.044Z,60.08
2022-08-17T21:53:47.475Z,59.91
2022-08-17T21:56:25.920Z,60.40
2022-08-17T21:59:02.994Z,60.27
2022-08-17T22:01:35.677Z,60.71
2022-08-17T22:04:08.732Z,60.52
2022-08-17T22:06:41.253Z,61.04
2022-08-17T22:09:16.235Z,62.57
2022-08-17T22:11:57.365Z,63.76
2022-08-17T22:14:53.470Z,64.71
2022-08-17T22:17:21.258Z,64.54
2022-08-17T22:19:52.743Z,65.00
2022-08-17T22:22:30.869Z,64.85
2022-08-17T22:25:05.262Z,64.81
2022-08-17T22:27:51.664Z,63.92
2022-08-17T22:30:38.788Z,63.33
2022-08-17T22:33:37.084Z,62.96
2022-08-17T22:36:22.977Z,62.20
2022-08-17T22:38:54.774Z,63.09
2022-08-17T22:41:43.727Z,63.61
2022-08-17T22:44:19.125Z,63.27
2022-08-17T22:46:57.958Z,62.81
2022-08-17T22:49:30.011Z,63.34
2022-08-17T22:52:19.526Z,63.31
2022-08-17T22:55:08.299Z,62.07
2022-08-17T22:57:51.942Z,62.92
2022-08-17T23:00:34.115Z,64.66
2022-08-17T23:03:09.458Z,66.73
2022-08-17T23:05:38.878Z,66.55
2022-08-17T23:08:06.825Z,65.23
2022-08-17T23:10:41.362Z,65.14
2022-08-17T23:13:12.010Z,65.34
2022-08-17T23:15:41.751Z,65.35
2022-08-17T23:18:10.159Z,65.26
2022-08-17T23:20:41.720Z,65.64
2022-08-17T23:23:11.085Z,65.80
2022-08-17T23:25:41.059Z,65.54
2022-08-17T23:28:09.197Z,65.11
2022-08-17T23:30:41.381Z,64.78
2022-08-17T23:33:14.490Z,65.38
2022-08-17T23:35:43.492Z,66.39
2022-08-17T23:38:13.947Z,66.17
2022-08-17T23:40:43.530Z,66.09
2022-08-17T23:43:23.720Z,66.23
2022-08-17T23:45:57.724Z,65.40
2022-08-17T23:48:35.210Z,65.33
2022-08-17T23:51:09.518Z,65.34
2022-08-17T23:53:40.225Z,65.18
2022-08-17T23:56:11.348Z,65.43
2022-08-17T23:58:42.502Z,67.28
